createdAt,value
2018-09-05T00:04:22.470Z,101702.50
2018-09-05T00:09:24.600Z,101708.84
2018-09-05T00:14:26.745Z,101715.45
2018-09-05T00:19:28.866Z,101716.81
2018-09-05T00:24:31.031Z,101707.39
2018-09-05T00:29:33.212Z,101712.04
2018-09-05T00:34:35.397Z,101710.76
2018-09-05T00:39:37.547Z,101709.48
2018-09-05T00:44:39.660Z,101709.48
2018-09-05T00:49:41.785Z,101708.17
2018-09-05T00:54:43.920Z,101708.41
2018-09-05T00:59:46.078Z,101696.55
2018-09-05T01:04:48.395Z,101698.42
2018-09-05T01:09:50.578Z,101704.16
2018-09-05T01:14:53.596Z,101701.89
2018-09-05T01:19:55.730Z,101697.67
2018-09-05T01:24:57.854Z,101693.48
2018-09-05T01:30:00.022Z,101700.81
2018-09-05T01:35:02.166Z,101703.34
2018-09-05T01:40:04.391Z,101705.64
2018-09-05T01:45:06.553Z,101714.42
2018-09-05T01:50:08.684Z,101707.19
2018-09-05T01:55:10.827Z,101707.83
2018-09-05T02:00:18.703Z,101704.86
2018-09-05T02:05:20.847Z,101701.32
2018-09-05T02:10:23.007Z,101692.54
2018-09-05T02:15:25.248Z,101689.00
2018-09-05T02:20:27.426Z,101693.10
2018-09-05T02:25:29.570Z,101697.48
2018-09-05T02:30:31.677Z,101700.25
2018-09-05T02:35:33.819Z,101689.98
2018-09-05T02:40:36.014Z,101694.99
2018-09-05T02:45:38.134Z,101687.50
2018-09-05T02:50:40.295Z,101693.60
2018-09-05T02:55:48.045Z,101690.67
2018-09-05T03:00:50.203Z,101696.31
2018-09-05T03:05:52.530Z,101690.46
2018-09-05T03:10:54.682Z,101701.52
2018-09-05T03:15:56.793Z,101703.66
2018-09-05T03:20:58.914Z,101707.97
2018-09-05T03:26:01.091Z,101707.48
2018-09-05T03:31:03.246Z,101704.66
2018-09-05T03:36:05.391Z,101697.69
2018-09-05T03:41:07.522Z,101698.64
2018-09-05T03:46:09.641Z,101703.45
2018-09-05T03:51:11.791Z,101701.58
2018-09-05T03:56:13.953Z,101683.08
2018-09-05T04:01:16.105Z,101702.88
2018-09-05T04:06:20.715Z,101707.98
2018-09-05T04:11:22.833Z,101717.42
2018-09-05T04:16:24.986Z,101720.19
2018-09-05T04:21:27.156Z,101716.56
2018-09-05T04:26:29.272Z,101721.66
2018-09-05T04:31:31.422Z,101720.02
2018-09-05T04:36:33.567Z,101716.59
2018-09-05T04:41:35.726Z,101725.55
2018-09-05T04:46:37.881Z,101726.84
2018-09-05T04:51:40.053Z,101729.38
2018-09-05T04:56:42.170Z,101729.34
2018-09-05T05:01:44.322Z,101733.09
2018-09-05T05:06:46.528Z,101736.19
2018-09-05T05:11:48.681Z,101740.00
2018-09-05T05:16:51.014Z,101743.92
2018-09-05T05:21:53.156Z,101744.10
2018-09-05T05:26:55.338Z,101750.76
2018-09-05T05:31:57.502Z,101754.25
2018-09-05T05:36:59.628Z,101762.09
2018-09-05T05:42:01.745Z,101756.13
2018-09-05T05:47:03.880Z,101762.86
2018-09-05T05:52:05.928Z,101760.91
2018-09-05T05:57:08.005Z,101756.08
2018-09-05T06:02:10.174Z,101761.69
2018-09-05T06:07:12.309Z,101759.86
2018-09-05T06:12:14.537Z,101750.20
2018-09-05T06:17:16.643Z,101754.25
2018-09-05T06:22:18.905Z,101757.38
2018-09-05T06:27:21.058Z,101765.65
2018-09-05T06:32:23.215Z,101767.93
2018-09-05T06:37:25.301Z,101763.74
2018-09-05T06:42:27.438Z,101771.12
2018-09-05T06:47:29.576Z,101770.36
2018-09-05T06:52:31.707Z,101769.55
2018-09-05T06:57:34.232Z,101759.34
2018-09-05T07:02:36.434Z,101756.78
2018-09-05T07:07:38.581Z,101764.48
2018-09-05T07:12:40.772Z,101759.37
2018-09-05T07:17:42.906Z,101767.99
2018-09-05T07:22:45.018Z,101768.41
2018-09-05T07:27:47.140Z,101767.14
2018-09-05T07:32:49.301Z,101777.10
2018-09-05T07:37:51.432Z,101770.88
2018-09-05T07:42:53.602Z,101768.38
2018-09-05T07:47:55.766Z,101770.94
2018-09-05T07:52:58.169Z,101768.52
2018-09-05T07:58:00.433Z,101772.06
2018-09-05T08:03:02.972Z,101776.33
2018-09-05T08:08:05.128Z,101779.66
2018-09-05T08:13:07.295Z,101775.87
2018-09-05T08:18:09.499Z,101766.67
2018-09-05T08:23:11.645Z,101777.55
2018-09-05T08:28:13.752Z,101782.90
2018-09-05T08:33:15.931Z,101783.80
2018-09-05T08:38:18.123Z,101785.59
2018-09-05T08:43:20.317Z,101784.11
2018-09-05T08:48:22.542Z,101783.77
2018-09-05T08:53:24.580Z,101784.33
2018-09-05T08:58:26.755Z,101784.40
2018-09-05T09:03:29.067Z,101787.81
2018-09-05T09:08:31.196Z,101788.12
2018-09-05T09:13:33.337Z,101782.56
2018-09-05T09:18:35.511Z,101776.62
2018-09-05T09:23:37.910Z,101787.81
2018-09-05T09:28:40.053Z,101780.55
2018-09-05T09:33:42.227Z,101776.30
2018-09-05T09:38:44.356Z,101764.84
2018-09-05T09:43:46.503Z,101759.83
2018-09-05T09:48:48.663Z,101754.72
2018-09-05T09:53:51.724Z,101766.73
2018-09-05T09:58:53.955Z,101749.52
2018-09-05T10:04:01.755Z,101749.52
2018-09-05T10:09:12.441Z,101745.66
2018-09-05T10:14:20.361Z,101743.13
2018-09-05T10:19:22.526Z,101740.14
2018-09-05T10:24:24.666Z,101740.98
2018-09-05T10:29:26.842Z,101737.08
2018-09-05T10:34:28.991Z,101737.52
2018-09-05T10:39:31.145Z,101722.94
2018-09-05T10:44:33.294Z,101732.41
2018-09-05T10:49:35.422Z,101732.41
2018-09-05T10:54:37.586Z,101731.98
2018-09-05T10:59:39.717Z,101725.98
2018-09-05T11:04:41.886Z,101721.23
2018-09-05T11:09:44.012Z,101713.93
2018-09-05T11:14:46.158Z,101710.55
2018-09-05T11:19:48.262Z,101707.52
2018-09-05T11:24:50.407Z,101711.37
2018-09-05T11:29:52.537Z,101705.34
2018-09-05T11:34:54.702Z,101702.80
2018-09-05T11:39:56.854Z,101698.05
2018-09-05T11:44:59.067Z,101699.38
2018-09-05T11:50:01.197Z,101704.97
2018-09-05T11:55:03.440Z,101691.11
2018-09-05T12:00:49.727Z,101686.80
2018-09-05T12:05:51.922Z,101683.53
2018-09-05T12:10:54.076Z,101683.61
2018-09-05T12:15:56.196Z,101674.55
2018-09-05T12:20:58.322Z,101667.09
2018-09-05T12:26:00.485Z,101660.56
2018-09-05T12:31:02.637Z,101642.83
2018-09-05T12:36:04.817Z,101662.44
2018-09-05T12:41:06.939Z,101658.66
2018-09-05T12:46:09.350Z,101652.16
2018-09-05T12:51:11.527Z,101652.41
2018-09-05T12:56:13.658Z,101652.84
2018-09-05T13:01:15.842Z,101652.02
2018-09-05T13:06:17.994Z,101653.99
2018-09-05T13:11:20.326Z,101644.45
2018-09-05T13:16:22.482Z,101646.80
2018-09-05T13:21:24.664Z,101642.48
2018-09-05T13:26:26.822Z,101641.91
2018-09-05T13:31:28.926Z,101630.44
2018-09-05T13:36:31.156Z,101626.73
2018-09-05T13:41:33.357Z,101629.53
2018-09-05T13:46:35.700Z,101621.88
2018-09-05T13:51:38.109Z,101614.38
2018-09-05T13:56:40.303Z,101611.02
2018-09-05T14:01:42.483Z,101613.73
2018-09-05T14:06:44.655Z,101613.05
2018-09-05T14:11:46.875Z,101617.05
2018-09-05T14:16:48.999Z,101607.27
2018-09-05T14:21:51.212Z,101607.30
2018-09-05T14:26:53.396Z,101598.45
2018-09-05T14:31:55.594Z,101597.75
2018-09-05T14:36:57.822Z,101599.84
2018-09-05T14:42:00.002Z,101602.00
2018-09-05T14:47:02.209Z,101596.48
2018-09-05T14:52:04.383Z,101587.72
2018-09-05T14:57:06.632Z,101581.63
2018-09-05T15:02:08.825Z,101591.02
2018-09-05T15:07:11.074Z,101579.45
2018-09-05T15:12:13.256Z,101573.86
2018-09-05T15:17:15.490Z,101571.23
2018-09-05T15:22:17.687Z,101566.46
2018-09-05T15:27:19.855Z,101572.89
2018-09-05T15:32:22.107Z,101563.87
2018-09-05T15:37:24.256Z,101563.27
2018-09-05T15:42:26.594Z,101559.04
2018-09-05T15:47:28.735Z,101565.58
2018-09-05T15:52:30.896Z,101564.88
2018-09-05T15:57:33.130Z,101570.22
2018-09-05T16:02:35.240Z,101567.55
2018-09-05T16:07:37.436Z,101567.80
2018-09-05T16:12:39.591Z,101563.27
2018-09-05T16:17:41.755Z,101552.00
2018-09-05T16:22:43.905Z,101558.72
2018-09-05T16:27:46.088Z,101555.67
2018-09-05T16:32:48.241Z,101558.42
2018-09-05T16:37:50.430Z,101557.50
2018-09-05T16:42:52.656Z,101554.20
2018-09-05T16:47:54.901Z,101560.54
2018-09-05T16:52:57.096Z,101565.54
2018-09-05T16:57:59.273Z,101563.08
2018-09-05T17:03:01.459Z,101556.77
2018-09-05T17:08:03.957Z,101560.80
2018-09-05T17:13:06.169Z,101558.25
2018-09-05T17:18:08.394Z,101564.34
2018-09-05T17:23:10.581Z,101562.25
2018-09-05T17:28:12.772Z,101561.44
2018-09-05T17:33:15.477Z,101568.31
2018-09-05T17:38:17.951Z,101569.59
2018-09-05T17:43:20.094Z,101571.33
2018-09-05T17:48:22.316Z,101568.37
2018-09-05T17:53:24.536Z,101568.79
2018-09-05T17:58:26.743Z,101571.80
2018-09-05T18:03:29.002Z,101567.94
2018-09-05T18:08:31.260Z,101567.94
2018-09-05T18:13:33.463Z,101568.80
2018-09-05T18:18:35.723Z,101564.48
2018-09-05T18:23:37.914Z,101572.22
2018-09-05T18:28:40.100Z,101572.66
2018-09-05T18:33:42.369Z,101565.34
2018-09-05T18:38:44.507Z,101570.08
2018-09-05T18:43:46.759Z,101569.20
2018-09-05T18:48:48.966Z,101567.03
2018-09-05T18:53:51.176Z,101569.17
2018-09-05T18:58:55.159Z,101571.75
2018-09-05T19:03:57.368Z,101573.04
2018-09-05T19:08:59.610Z,101567.88
2018-09-05T19:14:02.372Z,101566.59
2018-09-05T19:19:04.715Z,101564.45
2018-09-05T19:24:06.927Z,101560.14
2018-09-05T19:29:09.132Z,101558.02
2018-09-05T19:34:11.385Z,101556.70
2018-09-05T19:39:13.629Z,101548.13
2018-09-05T19:44:15.841Z,101541.70
2018-09-05T19:49:18.094Z,101550.69
2018-09-05T19:54:20.415Z,101549.41
2018-09-05T19:59:22.704Z,101544.24
2018-09-05T20:04:25.171Z,101542.09
2018-09-05T20:09:27.504Z,101539.53
2018-09-05T20:14:29.951Z,101537.38
2018-09-05T20:19:32.167Z,101545.50
2018-09-05T20:24:34.348Z,101542.92
2018-09-05T20:29:36.586Z,101544.17
2018-09-05T20:34:38.796Z,101537.66
2018-09-05T20:39:41.257Z,101541.02
2018-09-05T20:44:43.460Z,101540.58
2018-09-05T20:49:45.662Z,101533.23
2018-09-05T20:54:47.791Z,101525.50
2018-09-05T20:59:49.960Z,101525.05
2018-09-05T21:04:52.105Z,101513.04
2018-09-05T21:09:54.289Z,101510.48
2018-09-05T21:14:56.440Z,101513.02
2018-09-05T21:19:58.587Z,101508.74
2018-09-05T21:25:00.718Z,101510.89
2018-09-05T21:30:02.910Z,101505.30
2018-09-05T21:35:05.050Z,101510.44
2018-09-05T21:40:07.257Z,101514.14
2018-09-05T21:45:09.437Z,101510.63
2018-09-05T21:50:11.619Z,101516.05
2018-09-05T21:55:13.825Z,101515.46
2018-09-05T22:00:15.954Z,101512.30
2018-09-05T22:05:18.105Z,101506.58
2018-09-05T22:10:20.527Z,101509.03
2018-09-05T22:15:23.255Z,101512.40
2018-09-05T22:20:25.400Z,101516.60
2018-09-05T22:25:27.537Z,101512.70
2018-09-05T22:30:30.486Z,101509.24
2018-09-05T22:35:32.640Z,101513.09
2018-09-05T22:40:40.431Z,101509.14
2018-09-05T22:45:53.926Z,101506.56
2018-09-05T22:52:10.449Z,101500.08
2018-09-05T23:01:27.289Z,101497.40
2018-09-05T23:06:42.612Z,101484.92
2018-09-05T23:11:56.403Z,101487.42
2018-09-05T23:19:18.568Z,101486.89
2018-09-05T23:24:20.717Z,101473.16
2018-09-05T23:29:23.343Z,101470.13
2018-09-05T23:34:25.511Z,101472.62
2018-09-05T23:39:27.621Z,101461.45
2018-09-05T23:44:30.016Z,101460.61
2018-09-05T23:49:32.124Z,101457.18
2018-09-05T23:54:34.343Z,101462.30
2018-09-05T23:59:36.588Z,101457.53
